createdAt,value
2019-06-26T00:03:42.163Z,56.63
2019-06-26T00:07:43.924Z,57.08
2019-06-26T00:11:45.637Z,57.44
2019-06-26T00:15:47.375Z,57.93
2019-06-26T00:19:49.443Z,58.08
2019-06-26T00:23:51.631Z,58.71
2019-06-26T00:27:53.344Z,59.01
2019-06-26T00:31:55.128Z,59.38
2019-06-26T00:35:56.834Z,59.86
2019-06-26T00:39:58.544Z,60.17
2019-06-26T00:44:00.722Z,60.28
2019-06-26T00:48:02.490Z,60.59
2019-06-26T00:52:04.302Z,60.71
2019-06-26T00:56:06.029Z,60.86
2019-06-26T01:00:08.244Z,61.09
2019-06-26T01:04:09.990Z,61.04
2019-06-26T01:08:11.690Z,62.58
2019-06-26T01:12:13.417Z,63.51
2019-06-26T01:16:15.261Z,63.66
2019-06-26T01:20:17.257Z,63.62
2019-06-26T01:24:18.970Z,63.75
2019-06-26T01:28:20.676Z,64.41
2019-06-26T01:32:22.797Z,64.65
2019-06-26T01:36:24.515Z,64.43
2019-06-26T01:40:26.224Z,64.45
2019-06-26T01:44:28.676Z,64.59
2019-06-26T01:48:30.415Z,64.83
2019-06-26T01:52:32.118Z,64.96
2019-06-26T01:56:34.113Z,65.40
2019-06-26T02:00:36.208Z,65.08
2019-06-26T02:04:37.967Z,65.54
2019-06-26T02:08:40.242Z,66.03
2019-06-26T02:12:41.980Z,66.28
2019-06-26T02:16:43.755Z,66.38
2019-06-26T02:20:45.749Z,66.79
2019-06-26T02:24:47.490Z,67.18
2019-06-26T02:28:49.294Z,67.78
2019-06-26T02:32:51.332Z,67.90
2019-06-26T02:36:53.053Z,68.15
2019-06-26T02:40:54.762Z,68.23
2019-06-26T02:44:56.580Z,68.42
2019-06-26T02:48:58.468Z,68.78
2019-06-26T02:53:00.200Z,68.95
2019-06-26T02:57:02.261Z,69.50
2019-06-26T03:01:03.967Z,70.12
2019-06-26T03:05:05.961Z,70.44
2019-06-26T03:09:07.969Z,70.52
2019-06-26T03:13:10.369Z,70.66
2019-06-26T03:17:12.094Z,70.98
2019-06-26T03:21:13.854Z,71.12
2019-06-26T03:25:16.411Z,71.64
2019-06-26T03:29:18.306Z,71.87
2019-06-26T03:33:20.305Z,72.69
2019-06-26T03:37:22.011Z,72.76
2019-06-26T03:41:23.815Z,73.37
2019-06-26T03:45:26.575Z,73.70
2019-06-26T03:49:29.255Z,73.96
2019-06-26T03:53:31.028Z,73.97
2019-06-26T03:57:35.346Z,73.84
2019-06-26T04:01:36.751Z,74.33
2019-06-26T04:05:38.459Z,74.60
2019-06-26T04:09:40.538Z,74.27
2019-06-26T04:13:42.306Z,74.42
2019-06-26T04:17:44.384Z,74.48
2019-06-26T04:21:46.253Z,74.75
2019-06-26T04:25:47.973Z,75.43
2019-06-26T04:29:49.709Z,75.44
2019-06-26T04:33:51.412Z,75.68
2019-06-26T04:37:53.200Z,75.18
2019-06-26T04:41:54.879Z,74.90
2019-06-26T04:45:58.573Z,74.21
2019-06-26T04:50:00.333Z,74.38
2019-06-26T04:54:02.337Z,74.43
2019-06-26T04:58:04.421Z,74.10
2019-06-26T05:02:06.137Z,74.20
2019-06-26T05:06:07.901Z,74.36
2019-06-26T05:10:10.552Z,74.88
2019-06-26T05:14:12.346Z,74.48
2019-06-26T05:18:14.445Z,74.38
2019-06-26T05:22:16.576Z,73.93
2019-06-26T05:26:18.374Z,74.05
2019-06-26T05:30:20.551Z,73.07
2019-06-26T05:34:22.579Z,72.75
2019-06-26T05:38:24.724Z,72.87
2019-06-26T05:42:26.743Z,72.68
2019-06-26T05:46:31.532Z,70.63
2019-06-26T05:50:33.388Z,69.41
2019-06-26T05:54:35.534Z,66.71
2019-06-26T05:58:37.380Z,66.06
2019-06-26T06:02:39.744Z,66.11
2019-06-26T06:06:42.492Z,67.19
2019-06-26T06:10:44.531Z,67.50
2019-06-26T06:14:46.804Z,67.47
2019-06-26T06:18:49.162Z,67.97
2019-06-26T06:22:50.992Z,68.46
2019-06-26T06:26:53.234Z,66.35
2019-06-26T06:30:55.117Z,66.17
2019-06-26T06:34:57.101Z,65.58
2019-06-26T06:38:59.278Z,65.22
2019-06-26T06:43:01.845Z,65.54
2019-06-26T06:47:05.590Z,64.99
2019-06-26T06:51:07.552Z,65.71
2019-06-26T06:55:10.225Z,64.60
2019-06-26T06:59:12.441Z,65.31
2019-06-26T07:03:14.150Z,64.16
2019-06-26T07:07:16.262Z,65.34
2019-06-26T07:11:18.377Z,64.60
2019-06-26T07:15:20.476Z,64.85
2019-06-26T07:19:22.372Z,62.13
2019-06-26T07:23:24.070Z,63.09
2019-06-26T07:27:26.301Z,63.72
2019-06-26T07:31:28.080Z,63.36
2019-06-26T07:35:29.785Z,62.37
2019-06-26T07:39:34.546Z,61.15
2019-06-26T07:43:36.539Z,60.72
2019-06-26T07:47:43.718Z,59.45
2019-06-26T07:51:42.767Z,60.62
2019-06-26T07:55:44.881Z,60.18
2019-06-26T07:59:46.871Z,60.24
2019-06-26T08:03:48.590Z,59.60
2019-06-26T08:07:51.723Z,58.69
2019-06-26T08:11:54.307Z,61.04
2019-06-26T08:15:57.107Z,59.25
2019-06-26T08:19:59.196Z,58.25
2019-06-26T08:24:01.305Z,57.63
2019-06-26T08:28:03.106Z,56.13
2019-06-26T08:32:04.945Z,56.32
2019-06-26T08:36:06.836Z,56.45
2019-06-26T08:40:08.864Z,54.36
2019-06-26T08:44:10.588Z,54.48
2019-06-26T08:48:19.243Z,54.17
2019-06-26T08:52:16.488Z,55.61
2019-06-26T08:56:18.206Z,55.69
2019-06-26T09:00:20.170Z,53.85
2019-06-26T09:04:21.890Z,51.94
2019-06-26T09:08:24.706Z,52.71
2019-06-26T09:12:26.887Z,52.55
2019-06-26T09:16:28.717Z,52.39
2019-06-26T09:20:36.313Z,52.66
2019-06-26T09:24:38.155Z,53.56
2019-06-26T09:28:40.445Z,52.80
2019-06-26T09:32:46.269Z,52.59
2019-06-26T09:36:54.885Z,51.89
2019-06-26T09:40:57.315Z,53.94
2019-06-26T09:44:59.170Z,52.96
2019-06-26T09:49:04.292Z,52.47
2019-06-26T09:53:06.474Z,49.88
2019-06-26T09:57:09.630Z,49.54
2019-06-26T10:01:13.327Z,51.86
2019-06-26T10:05:15.706Z,49.09
2019-06-26T10:09:18.631Z,49.06
2019-06-26T10:13:20.922Z,48.24
2019-06-26T10:17:23.273Z,48.50
2019-06-26T10:21:25.075Z,46.88
2019-06-26T10:25:28.029Z,45.43
2019-06-26T10:29:30.206Z,48.24
2019-06-26T10:33:32.384Z,46.32
2019-06-26T10:37:34.252Z,45.06
2019-06-26T10:41:36.941Z,44.63
2019-06-26T10:45:38.711Z,45.24
2019-06-26T10:49:40.423Z,45.08
2019-06-26T10:53:43.151Z,44.01
2019-06-26T10:57:45.453Z,46.08
2019-06-26T11:01:48.178Z,42.76
2019-06-26T11:05:49.976Z,43.58
2019-06-26T11:09:52.874Z,43.25
2019-06-26T11:13:55.367Z,44.24
2019-06-26T11:17:57.716Z,44.91
2019-06-26T11:21:59.436Z,45.31
2019-06-26T11:26:04.209Z,47.54
2019-06-26T11:30:09.256Z,47.33
2019-06-26T11:34:11.580Z,44.69
2019-06-26T11:38:14.399Z,44.84
2019-06-26T11:42:16.657Z,44.19
2019-06-26T11:46:18.752Z,45.02
2019-06-26T11:50:22.663Z,43.94
2019-06-26T11:54:25.219Z,42.90
2019-06-26T11:58:26.993Z,42.83
2019-06-26T12:02:29.477Z,44.80
2019-06-26T12:06:31.745Z,46.28
2019-06-26T12:10:33.539Z,48.70
2019-06-26T12:14:36.139Z,44.80
2019-06-26T12:18:38.078Z,46.99
2019-06-26T12:22:40.583Z,44.50
2019-06-26T12:26:42.370Z,45.49
2019-06-26T12:30:44.928Z,44.64
2019-06-26T12:34:47.104Z,44.35
2019-06-26T12:38:49.180Z,44.63
2019-06-26T12:42:54.526Z,42.65
2019-06-26T12:46:54.901Z,42.84
2019-06-26T12:50:58.270Z,41.29
2019-06-26T12:55:00.071Z,42.86
2019-06-26T12:59:01.930Z,42.87
2019-06-26T13:03:04.472Z,44.29
2019-06-26T13:07:06.796Z,42.71
2019-06-26T13:11:08.578Z,42.76
2019-06-26T13:15:16.446Z,44.72
2019-06-26T13:19:23.995Z,42.11
2019-06-26T13:23:25.886Z,41.37
2019-06-26T13:27:27.935Z,41.46
2019-06-26T13:31:30.293Z,40.48
2019-06-26T13:35:32.681Z,41.90
2019-06-26T13:39:34.962Z,41.48
2019-06-26T13:43:37.029Z,42.20
2019-06-26T13:47:39.246Z,42.60
2019-06-26T13:51:41.009Z,42.55
2019-06-26T13:55:43.168Z,43.37
2019-06-26T13:59:44.985Z,42.99
2019-06-26T14:03:46.790Z,41.85
2019-06-26T14:07:48.979Z,41.89
2019-06-26T14:11:51.696Z,42.42
2019-06-26T14:15:53.827Z,42.61
2019-06-26T14:19:55.869Z,41.59
2019-06-26T14:23:57.734Z,42.29
2019-06-26T14:27:59.904Z,42.31
2019-06-26T14:32:01.656Z,43.50
2019-06-26T14:36:03.386Z,43.59
2019-06-26T14:40:05.432Z,42.91
2019-06-26T14:44:07.181Z,43.61
2019-06-26T14:48:09.086Z,42.46
2019-06-26T14:52:10.986Z,39.98
2019-06-26T14:56:12.823Z,41.68
2019-06-26T15:00:15.986Z,43.23
2019-06-26T15:04:18.484Z,43.15
2019-06-26T15:08:21.175Z,42.77
2019-06-26T15:12:22.996Z,41.17
2019-06-26T15:16:25.844Z,41.14
2019-06-26T15:20:33.344Z,40.80
2019-06-26T15:24:35.060Z,38.67
2019-06-26T15:28:37.259Z,40.14
2019-06-26T15:32:39.583Z,40.26
2019-06-26T15:36:41.694Z,42.76
2019-06-26T15:40:44.404Z,42.50
2019-06-26T15:44:46.592Z,42.63
2019-06-26T15:48:50.415Z,41.61
2019-06-26T15:52:52.465Z,41.62
2019-06-26T15:56:54.310Z,42.16
2019-06-26T16:00:56.062Z,41.46
2019-06-26T16:04:57.824Z,40.92
2019-06-26T16:08:59.946Z,41.19
2019-06-26T16:13:04.220Z,40.89
2019-06-26T16:17:06.911Z,40.81
2019-06-26T16:26:22.410Z,42.03
2019-06-26T16:30:24.665Z,41.50
2019-06-26T16:34:28.049Z,42.12
2019-06-26T16:38:30.322Z,43.20
2019-06-26T16:42:32.514Z,43.80
2019-06-26T16:46:34.604Z,43.84
2019-06-26T16:50:36.806Z,43.30
2019-06-26T16:54:38.894Z,44.33
2019-06-26T16:58:40.837Z,43.35
2019-06-26T17:02:42.564Z,42.41
2019-06-26T17:06:44.270Z,42.11
2019-06-26T17:10:46.410Z,44.25
2019-06-26T17:14:48.546Z,44.64
2019-06-26T17:18:50.729Z,44.68
2019-06-26T17:23:05.011Z,45.35
2019-06-26T17:26:59.576Z,45.95
2019-06-26T17:31:02.458Z,45.33
2019-06-26T17:35:04.841Z,45.20
2019-06-26T17:39:06.696Z,45.64
2019-06-26T17:43:12.652Z,45.30
2019-06-26T17:47:12.916Z,46.40
2019-06-26T17:51:14.627Z,46.34
2019-06-26T17:55:16.404Z,46.82
2019-06-26T17:59:18.149Z,47.22
2019-06-26T18:03:20.123Z,48.72
2019-06-26T18:07:22.641Z,48.62
2019-06-26T18:11:24.674Z,48.74
2019-06-26T18:15:27.009Z,49.85
2019-06-26T18:19:29.454Z,50.22
2019-06-26T18:23:37.562Z,52.11
2019-06-26T18:27:38.058Z,52.13
2019-06-26T18:31:40.912Z,52.64
2019-06-26T18:35:43.307Z,51.79
2019-06-26T18:39:45.852Z,52.29
2019-06-26T18:43:48.928Z,51.71
2019-06-26T18:47:51.307Z,52.61
2019-06-26T18:51:53.575Z,53.26
2019-06-26T18:55:55.913Z,53.61
2019-06-26T19:00:03.205Z,54.11
2019-06-26T19:04:05.812Z,54.96
2019-06-26T19:08:08.587Z,55.20
2019-06-26T19:12:10.885Z,55.30
2019-06-26T19:16:14.227Z,55.17
2019-06-26T19:20:16.509Z,55.27
2019-06-26T19:24:18.907Z,55.98
2019-06-26T19:28:23.287Z,56.46
2019-06-26T19:32:30.750Z,55.57
2019-06-26T19:36:49.013Z,55.67
2019-06-26T19:40:38.856Z,56.11
2019-06-26T19:44:41.919Z,56.10
2019-06-26T19:48:43.717Z,56.22
2019-06-26T19:52:46.519Z,56.49
2019-06-26T19:56:48.653Z,56.03
2019-06-26T20:00:50.833Z,56.96
2019-06-26T20:04:53.015Z,57.14
2019-06-26T20:08:57.635Z,57.58
2019-06-26T20:13:00.572Z,58.06
2019-06-26T20:17:02.799Z,56.43
2019-06-26T20:25:15.311Z,56.81
2019-06-26T20:29:17.900Z,56.51
2019-06-26T20:33:20.436Z,56.55
2019-06-26T20:37:22.294Z,56.75
2019-06-26T20:41:25.491Z,57.36
2019-06-26T20:45:27.231Z,56.72
2019-06-26T20:49:29.438Z,56.84
2019-06-26T20:53:33.975Z,56.64
2019-06-26T20:57:37.071Z,57.33
2019-06-26T21:01:39.732Z,57.41
2019-06-26T21:05:41.957Z,57.36
2019-06-26T21:09:44.004Z,57.92
2019-06-26T21:13:45.742Z,57.92
2019-06-26T21:17:48.715Z,57.46
2019-06-26T21:21:50.801Z,57.23
2019-06-26T21:25:52.738Z,57.78
2019-06-26T21:29:57.597Z,58.55
2019-06-26T21:33:59.423Z,58.86
2019-06-26T21:38:01.291Z,58.97
2019-06-26T21:42:03.156Z,59.34
2019-06-26T21:46:04.909Z,59.42
2019-06-26T21:50:07.076Z,59.55
2019-06-26T21:54:08.871Z,59.03
2019-06-26T21:58:10.796Z,58.71
2019-06-26T22:02:18.572Z,59.45
2019-06-26T22:06:21.835Z,59.05
2019-06-26T22:10:29.398Z,58.89
2019-06-26T22:14:33.737Z,58.40
2019-06-26T22:18:36.161Z,59.63
2019-06-26T22:22:38.135Z,58.92
2019-06-26T22:26:40.792Z,58.17
2019-06-26T22:31:04.747Z,58.91
2019-06-26T22:35:06.728Z,59.09
2019-06-26T22:39:08.944Z,59.02
2019-06-26T22:43:10.732Z,59.30
2019-06-26T22:47:12.530Z,59.14
2019-06-26T22:51:14.529Z,58.66
2019-06-26T22:55:16.706Z,59.85
2019-06-26T22:59:18.464Z,59.76
2019-06-26T23:03:20.332Z,60.98
2019-06-26T23:07:22.489Z,61.85
2019-06-26T23:11:24.671Z,61.77
2019-06-26T23:15:26.821Z,61.87
2019-06-26T23:19:28.987Z,61.80
2019-06-26T23:23:30.999Z,61.93
2019-06-26T23:27:32.717Z,62.11
2019-06-26T23:31:34.437Z,62.88
2019-06-26T23:35:36.319Z,62.89
2019-06-26T23:39:38.438Z,63.32
2019-06-26T23:43:40.239Z,63.00
2019-06-26T23:47:42.597Z,63.73
2019-06-26T23:51:44.692Z,64.03
2019-06-26T23:55:46.788Z,64.65
2019-06-26T23:59:48.788Z,65.53
